sensor_id;sensor_type;location;lat;lon;timestamp;P1;durP1;ratioP1;P2;durP2;ratioP2
6561;SDS011;3314;50.890;4.722;2023-04-30T00:01:48;17.3;;;8.4;;
6561;SDS011;3314;50.890;4.722;2023-04-30T00:03:48;22.9;;;9.3;;
6561;SDS011;3314;50.890;4.722;2023-04-30T00:05:49;21.3;;;8.4;;
6561;SDS011;3314;50.890;4.722;2023-04-30T00:07:48;19.0;;;8.8;;
6561;SDS011;3314;50.890;4.722;2023-04-30T00:09:49;17.9;;;8.7;;
6561;SDS011;3314;50.890;4.722;2023-04-30T00:11:49;18.8;;;8.9;;
6561;SDS011;3314;50.890;4.722;2023-04-30T00:13:49;19.6;;;8.3;;
6561;SDS011;3314;50.890;4.722;2023-04-30T00:15:48;22.6;;;8.9;;
6561;SDS011;3314;50.890;4.722;2023-04-30T00:17:48;18.1;;;7.9;;
6561;SDS011;3314;50.890;4.722;2023-04-30T00:19:48;21.9;;;9.1;;
6561;SDS011;3314;50.890;4.722;2023-04-30T00:21:47;19.2;;;8.8;;
6561;SDS011;3314;50.890;4.722;2023-04-30T00:23:47;18.6;;;7.7;;
6561;SDS011;3314;50.890;4.722;2023-04-30T00:25:47;16.7;;;8.8;;
6561;SDS011;3314;50.890;4.722;2023-04-30T00:27:46;17.5;;;8.8;;
6561;SDS011;3314;50.890;4.722;2023-04-30T00:29:46;17.7;;;8.3;;
6561;SDS011;3314;50.890;4.722;2023-04-30T00:31:46;20.3;;;8.2;;
6561;SDS011;3314;50.890;4.722;2023-04-30T00:33:46;17.4;;;7.5;;
6561;SDS011;3314;50.890;4.722;2023-04-30T00:35:45;19.3;;;8.4;;
6561;SDS011;3314;50.890;4.722;2023-04-30T00:37:45;19.4;;;8.4;;
6561;SDS011;3314;50.890;4.722;2023-04-30T00:39:45;24.5;;;8.4;;
6561;SDS011;3314;50.890;4.722;2023-04-30T00:41:45;18.6;;;7.7;;
6561;SDS011;3314;50.890;4.722;2023-04-30T00:43:46;17.5;;;8.2;;
6561;SDS011;3314;50.890;4.722;2023-04-30T00:45:45;21.0;;;8.1;;
6561;SDS011;3314;50.890;4.722;2023-04-30T00:47:45;19.0;;;7.5;;
6561;SDS011;3314;50.890;4.722;2023-04-30T00:49:45;18.3;;;9.0;;
6561;SDS011;3314;50.890;4.722;2023-04-30T00:51:45;16.8;;;7.1;;
6561;SDS011;3314;50.890;4.722;2023-04-30T00:53:45;18.1;;;7.9;;
6561;SDS011;3314;50.890;4.722;2023-04-30T00:55:44;18.8;;;7.5;;
6561;SDS011;3314;50.890;4.722;2023-04-30T00:57:44;15.8;;;6.8;;
6561;SDS011;3314;50.890;4.722;2023-04-30T00:59:44;16.5;;;7.7;;
6561;SDS011;3314;50.890;4.722;2023-04-30T01:01:44;20.3;;;8.3;;
6561;SDS011;3314;50.890;4.722;2023-04-30T01:03:44;18.7;;;8.9;;
6561;SDS011;3314;50.890;4.722;2023-04-30T01:05:44;17.2;;;7.3;;
6561;SDS011;3314;50.890;4.722;2023-04-30T01:07:45;21.7;;;7.7;;
6561;SDS011;3314;50.890;4.722;2023-04-30T01:09:45;18.8;;;8.9;;
6561;SDS011;3314;50.890;4.722;2023-04-30T01:11:49;18.0;;;8.1;;
6561;SDS011;3314;50.890;4.722;2023-04-30T01:13:43;23.6;;;7.9;;
6561;SDS011;3314;50.890;4.722;2023-04-30T01:15:45;15.8;;;7.5;;
6561;SDS011;3314;50.890;4.722;2023-04-30T01:17:47;21.0;;;8.8;;
6561;SDS011;3314;50.890;4.722;2023-04-30T01:19:38;18.2;;;7.6;;
6561;SDS011;3314;50.890;4.722;2023-04-30T01:21:41;15.6;;;7.3;;
6561;SDS011;3314;50.890;4.722;2023-04-30T01:23:49;17.7;;;7.4;;
6561;SDS011;3314;50.890;4.722;2023-04-30T01:25:50;18.7;;;7.8;;
6561;SDS011;3314;50.890;4.722;2023-04-30T01:27:55;17.2;;;7.5;;
6561;SDS011;3314;50.890;4.722;2023-04-30T01:29:35;17.3;;;7.5;;
6561;SDS011;3314;50.890;4.722;2023-04-30T01:31:37;16.4;;;6.9;;
6561;SDS011;3314;50.890;4.722;2023-04-30T01:33:37;17.2;;;7.0;;
6561;SDS011;3314;50.890;4.722;2023-04-30T01:35:40;16.3;;;7.3;;
6561;SDS011;3314;50.890;4.722;2023-04-30T01:37:44;17.7;;;7.7;;
6561;SDS011;3314;50.890;4.722;2023-04-30T01:39:49;15.2;;;6.7;;
6561;SDS011;3314;50.890;4.722;2023-04-30T01:41:39;21.7;;;8.3;;
6561;SDS011;3314;50.890;4.722;2023-04-30T01:43:34;15.5;;;7.0;;
6561;SDS011;3314;50.890;4.722;2023-04-30T01:45:40;20.9;;;8.2;;
6561;SDS011;3314;50.890;4.722;2023-04-30T01:47:33;23.1;;;8.3;;
6561;SDS011;3314;50.890;4.722;2023-04-30T01:49:38;18.2;;;7.5;;
6561;SDS011;3314;50.890;4.722;2023-04-30T01:51:46;19.8;;;6.9;;
6561;SDS011;3314;50.890;4.722;2023-04-30T01:53:37;18.7;;;7.4;;
6561;SDS011;3314;50.890;4.722;2023-04-30T01:55:40;17.2;;;7.6;;
6561;SDS011;3314;50.890;4.722;2023-04-30T01:57:31;17.7;;;7.7;;
6561;SDS011;3314;50.890;4.722;2023-04-30T01:59:31;19.1;;;7.4;;
6561;SDS011;3314;50.890;4.722;2023-04-30T02:01:31;17.8;;;7.7;;
6561;SDS011;3314;50.890;4.722;2023-04-30T02:03:31;17.4;;;7.3;;
6561;SDS011;3314;50.890;4.722;2023-04-30T02:05:31;16.7;;;7.7;;
6561;SDS011;3314;50.890;4.722;2023-04-30T02:07:35;18.8;;;7.5;;
6561;SDS011;3314;50.890;4.722;2023-04-30T02:09:35;16.8;;;7.6;;
6561;SDS011;3314;50.890;4.722;2023-04-30T02:11:35;19.1;;;7.2;;
6561;SDS011;3314;50.890;4.722;2023-04-30T02:13:35;19.2;;;7.4;;
6561;SDS011;3314;50.890;4.722;2023-04-30T02:15:35;15.6;;;7.3;;
6561;SDS011;3314;50.890;4.722;2023-04-30T02:17:35;17.6;;;7.3;;
6561;SDS011;3314;50.890;4.722;2023-04-30T02:19:34;18.5;;;8.0;;
6561;SDS011;3314;50.890;4.722;2023-04-30T02:21:34;17.4;;;7.8;;
6561;SDS011;3314;50.890;4.722;2023-04-30T02:23:34;16.1;;;7.6;;
6561;SDS011;3314;50.890;4.722;2023-04-30T02:25:37;16.0;;;7.3;;
6561;SDS011;3314;50.890;4.722;2023-04-30T02:29:25;17.1;;;7.5;;
6561;SDS011;3314;50.890;4.722;2023-04-30T02:31:25;19.7;;;7.1;;
6561;SDS011;3314;50.890;4.722;2023-04-30T02:33:25;15.5;;;7.3;;
6561;SDS011;3314;50.890;4.722;2023-04-30T02:35:24;18.8;;;7.3;;
6561;SDS011;3314;50.890;4.722;2023-04-30T02:37:24;18.4;;;7.4;;
6561;SDS011;3314;50.890;4.722;2023-04-30T02:39:24;17.6;;;7.0;;
6561;SDS011;3314;50.890;4.722;2023-04-30T02:41:24;17.9;;;6.1;;
6561;SDS011;3314;50.890;4.722;2023-04-30T02:43:23;16.5;;;7.2;;
6561;SDS011;3314;50.890;4.722;2023-04-30T02:45:23;16.7;;;6.9;;
6561;SDS011;3314;50.890;4.722;2023-04-30T02:47:23;12.6;;;5.9;;
6561;SDS011;3314;50.890;4.722;2023-04-30T02:49:22;15.3;;;7.1;;
6561;SDS011;3314;50.890;4.722;2023-04-30T02:51:22;13.9;;;5.9;;
6561;SDS011;3314;50.890;4.722;2023-04-30T02:53:22;15.5;;;5.5;;
6561;SDS011;3314;50.890;4.722;2023-04-30T02:55:21;12.9;;;5.6;;
6561;SDS011;3314;50.890;4.722;2023-04-30T02:57:21;17.0;;;6.4;;
6561;SDS011;3314;50.890;4.722;2023-04-30T02:59:21;16.4;;;6.5;;
6561;SDS011;3314;50.890;4.722;2023-04-30T03:01:20;14.6;;;6.2;;
6561;SDS011;3314;50.890;4.722;2023-04-30T03:03:20;16.9;;;6.4;;
6561;SDS011;3314;50.890;4.722;2023-04-30T03:05:20;15.0;;;6.4;;
6561;SDS011;3314;50.890;4.722;2023-04-30T03:07:20;14.8;;;6.1;;
6561;SDS011;3314;50.890;4.722;2023-04-30T03:09:20;14.1;;;5.4;;
6561;SDS011;3314;50.890;4.722;2023-04-30T03:11:19;14.9;;;5.1;;
6561;SDS011;3314;50.890;4.722;2023-04-30T03:13:19;12.5;;;5.5;;
6561;SDS011;3314;50.890;4.722;2023-04-30T03:15:19;14.8;;;6.2;;
6561;SDS011;3314;50.890;4.722;2023-04-30T03:17:18;15.7;;;6.7;;
6561;SDS011;3314;50.890;4.722;2023-04-30T03:19:21;12.2;;;4.7;;
6561;SDS011;3314;50.890;4.722;2023-04-30T03:21:21;14.7;;;6.8;;
6561;SDS011;3314;50.890;4.722;2023-04-30T03:23:21;15.3;;;5.6;;
6561;SDS011;3314;50.890;4.722;2023-04-30T03:25:20;11.0;;;4.6;;
6561;SDS011;3314;50.890;4.722;2023-04-30T03:27:20;15.8;;;5.6;;
6561;SDS011;3314;50.890;4.722;2023-04-30T03:29:20;12.8;;;5.5;;
6561;SDS011;3314;50.890;4.722;2023-04-30T03:31:19;15.2;;;6.1;;
6561;SDS011;3314;50.890;4.722;2023-04-30T03:33:22;15.1;;;5.3;;
6561;SDS011;3314;50.890;4.722;2023-04-30T03:35:21;15.8;;;5.4;;
6561;SDS011;3314;50.890;4.722;2023-04-30T03:37:21;14.2;;;5.8;;
6561;SDS011;3314;50.890;4.722;2023-04-30T03:39:21;15.2;;;5.5;;
6561;SDS011;3314;50.890;4.722;2023-04-30T03:41:21;12.7;;;4.8;;
6561;SDS011;3314;50.890;4.722;2023-04-30T03:43:20;14.0;;;4.4;;
6561;SDS011;3314;50.890;4.722;2023-04-30T03:45:20;12.2;;;5.1;;
6561;SDS011;3314;50.890;4.722;2023-04-30T03:47:20;13.6;;;5.0;;
6561;SDS011;3314;50.890;4.722;2023-04-30T03:49:19;11.7;;;4.6;;
6561;SDS011;3314;50.890;4.722;2023-04-30T03:51:19;13.8;;;4.9;;
6561;SDS011;3314;50.890;4.722;2023-04-30T03:53:20;16.7;;;5.7;;
6561;SDS011;3314;50.890;4.722;2023-04-30T03:55:19;12.8;;;5.1;;
6561;SDS011;3314;50.890;4.722;2023-04-30T03:57:19;14.9;;;5.6;;
6561;SDS011;3314;50.890;4.722;2023-04-30T03:59:19;14.7;;;5.4;;
6561;SDS011;3314;50.890;4.722;2023-04-30T04:01:19;13.8;;;5.0;;
6561;SDS011;3314;50.890;4.722;2023-04-30T04:03:19;12.3;;;4.7;;
6561;SDS011;3314;50.890;4.722;2023-04-30T04:05:08;14.1;;;5.2;;
6561;SDS011;3314;50.890;4.722;2023-04-30T04:07:10;13.1;;;4.8;;
6561;SDS011;3314;50.890;4.722;2023-04-30T04:09:10;12.2;;;4.5;;
6561;SDS011;3314;50.890;4.722;2023-04-30T04:11:11;13.4;;;4.9;;
6561;SDS011;3314;50.890;4.722;2023-04-30T04:13:10;13.7;;;5.4;;
6561;SDS011;3314;50.890;4.722;2023-04-30T04:15:10;13.2;;;4.8;;
6561;SDS011;3314;50.890;4.722;2023-04-30T04:17:10;16.0;;;5.0;;
6561;SDS011;3314;50.890;4.722;2023-04-30T04:19:12;12.9;;;4.4;;
6561;SDS011;3314;50.890;4.722;2023-04-30T04:21:11;11.2;;;4.5;;
6561;SDS011;3314;50.890;4.722;2023-04-30T04:23:11;12.8;;;4.7;;
6561;SDS011;3314;50.890;4.722;2023-04-30T04:25:11;13.6;;;5.0;;
6561;SDS011;3314;50.890;4.722;2023-04-30T04:27:10;12.6;;;4.7;;
6561;SDS011;3314;50.890;4.722;2023-04-30T04:29:11;13.5;;;5.2;;
6561;SDS011;3314;50.890;4.722;2023-04-30T04:31:12;12.8;;;4.4;;
6561;SDS011;3314;50.890;4.722;2023-04-30T04:33:11;13.1;;;4.9;;
6561;SDS011;3314;50.890;4.722;2023-04-30T04:35:11;12.2;;;4.7;;
6561;SDS011;3314;50.890;4.722;2023-04-30T04:37:11;15.3;;;5.6;;
6561;SDS011;3314;50.890;4.722;2023-04-30T04:39:11;15.3;;;5.0;;
6561;SDS011;3314;50.890;4.722;2023-04-30T04:41:11;15.5;;;6.1;;
6561;SDS011;3314;50.890;4.722;2023-04-30T04:43:11;11.8;;;4.7;;
6561;SDS011;3314;50.890;4.722;2023-04-30T04:45:01;15.0;;;5.6;;
6561;SDS011;3314;50.890;4.722;2023-04-30T04:47:03;13.0;;;5.2;;
6561;SDS011;3314;50.890;4.722;2023-04-30T04:49:03;13.0;;;5.1;;
6561;SDS011;3314;50.890;4.722;2023-04-30T04:51:03;12.7;;;5.2;;
6561;SDS011;3314;50.890;4.722;2023-04-30T04:53:03;12.7;;;4.7;;
6561;SDS011;3314;50.890;4.722;2023-04-30T04:55:04;12.4;;;4.8;;
6561;SDS011;3314;50.890;4.722;2023-04-30T04:57:04;12.0;;;4.9;;
6561;SDS011;3314;50.890;4.722;2023-04-30T04:59:03;12.3;;;4.6;;
6561;SDS011;3314;50.890;4.722;2023-04-30T05:01:04;16.1;;;5.8;;
6561;SDS011;3314;50.890;4.722;2023-04-30T05:03:04;13.3;;;4.7;;
6561;SDS011;3314;50.890;4.722;2023-04-30T05:05:04;16.0;;;5.1;;
6561;SDS011;3314;50.890;4.722;2023-04-30T05:07:04;14.1;;;4.8;;
6561;SDS011;3314;50.890;4.722;2023-04-30T05:09:06;12.1;;;4.5;;
6561;SDS011;3314;50.890;4.722;2023-04-30T05:11:05;13.6;;;5.6;;
6561;SDS011;3314;50.890;4.722;2023-04-30T05:13:05;15.1;;;5.0;;
6561;SDS011;3314;50.890;4.722;2023-04-30T05:15:06;13.9;;;5.3;;
6561;SDS011;3314;50.890;4.722;2023-04-30T05:16:55;14.3;;;5.4;;
6561;SDS011;3314;50.890;4.722;2023-04-30T05:18:55;13.1;;;5.1;;
6561;SDS011;3314;50.890;4.722;2023-04-30T05:20:54;12.9;;;4.7;;
6561;SDS011;3314;50.890;4.722;2023-04-30T05:22:54;16.8;;;5.3;;
6561;SDS011;3314;50.890;4.722;2023-04-30T05:24:55;17.7;;;5.5;;
6561;SDS011;3314;50.890;4.722;2023-04-30T05:26:55;18.1;;;6.3;;
6561;SDS011;3314;50.890;4.722;2023-04-30T05:28:55;13.7;;;5.2;;
6561;SDS011;3314;50.890;4.722;2023-04-30T05:30:55;14.5;;;5.0;;
6561;SDS011;3314;50.890;4.722;2023-04-30T05:32:56;12.9;;;5.2;;
6561;SDS011;3314;50.890;4.722;2023-04-30T05:34:56;14.0;;;6.3;;
6561;SDS011;3314;50.890;4.722;2023-04-30T05:36:56;16.2;;;5.6;;
6561;SDS011;3314;50.890;4.722;2023-04-30T05:38:55;14.0;;;5.6;;
6561;SDS011;3314;50.890;4.722;2023-04-30T05:40:55;19.0;;;6.1;;
6561;SDS011;3314;50.890;4.722;2023-04-30T05:42:55;17.1;;;6.4;;
6561;SDS011;3314;50.890;4.722;2023-04-30T05:44:55;14.9;;;5.2;;
6561;SDS011;3314;50.890;4.722;2023-04-30T05:46:55;15.1;;;5.7;;
6561;SDS011;3314;50.890;4.722;2023-04-30T05:48:55;14.7;;;5.4;;
6561;SDS011;3314;50.890;4.722;2023-04-30T05:50:54;15.2;;;5.8;;
6561;SDS011;3314;50.890;4.722;2023-04-30T05:52:54;14.3;;;5.8;;
6561;SDS011;3314;50.890;4.722;2023-04-30T05:54:53;14.9;;;6.4;;
6561;SDS011;3314;50.890;4.722;2023-04-30T05:56:53;18.8;;;6.8;;
6561;SDS011;3314;50.890;4.722;2023-04-30T05:58:53;19.1;;;7.0;;
6561;SDS011;3314;50.890;4.722;2023-04-30T06:00:52;16.2;;;6.0;;
6561;SDS011;3314;50.890;4.722;2023-04-30T06:02:53;17.9;;;6.9;;
6561;SDS011;3314;50.890;4.722;2023-04-30T06:04:52;17.0;;;7.4;;
6561;SDS011;3314;50.890;4.722;2023-04-30T06:06:52;18.3;;;8.3;;
6561;SDS011;3314;50.890;4.722;2023-04-30T06:08:52;16.1;;;7.2;;
6561;SDS011;3314;50.890;4.722;2023-04-30T06:10:51;16.9;;;8.0;;
6561;SDS011;3314;50.890;4.722;2023-04-30T06:12:51;17.0;;;7.5;;
6561;SDS011;3314;50.890;4.722;2023-04-30T06:14:51;20.7;;;8.9;;
6561;SDS011;3314;50.890;4.722;2023-04-30T06:16:51;22.7;;;8.7;;
6561;SDS011;3314;50.890;4.722;2023-04-30T06:18:50;17.0;;;7.6;;
6561;SDS011;3314;50.890;4.722;2023-04-30T06:20:50;20.0;;;9.0;;
6561;SDS011;3314;50.890;4.722;2023-04-30T06:22:50;20.5;;;8.1;;
6561;SDS011;3314;50.890;4.722;2023-04-30T06:24:50;23.6;;;10.7;;
6561;SDS011;3314;50.890;4.722;2023-04-30T06:26:49;21.0;;;10.3;;
6561;SDS011;3314;50.890;4.722;2023-04-30T06:28:49;24.7;;;11.1;;
6561;SDS011;3314;50.890;4.722;2023-04-30T06:30:49;23.5;;;10.2;;
6561;SDS011;3314;50.890;4.722;2023-04-30T06:32:49;22.4;;;10.6;;
6561;SDS011;3314;50.890;4.722;2023-04-30T06:34:48;21.7;;;9.7;;
6561;SDS011;3314;50.890;4.722;2023-04-30T06:36:48;24.2;;;10.6;;
6561;SDS011;3314;50.890;4.722;2023-04-30T06:38:47;20.2;;;10.0;;
6561;SDS011;3314;50.890;4.722;2023-04-30T06:40:47;24.1;;;11.0;;
6561;SDS011;3314;50.890;4.722;2023-04-30T06:42:47;21.9;;;9.6;;
6561;SDS011;3314;50.890;4.722;2023-04-30T06:44:47;21.9;;;10.3;;
6561;SDS011;3314;50.890;4.722;2023-04-30T06:46:46;22.7;;;10.2;;
6561;SDS011;3314;50.890;4.722;2023-04-30T06:48:46;24.3;;;10.9;;
6561;SDS011;3314;50.890;4.722;2023-04-30T06:50:46;21.8;;;10.1;;
6561;SDS011;3314;50.890;4.722;2023-04-30T06:52:45;23.1;;;10.1;;
6561;SDS011;3314;50.890;4.722;2023-04-30T06:54:45;22.9;;;11.1;;
6561;SDS011;3314;50.890;4.722;2023-04-30T06:56:45;23.1;;;10.6;;
6561;SDS011;3314;50.890;4.722;2023-04-30T06:58:45;22.2;;;10.3;;
6561;SDS011;3314;50.890;4.722;2023-04-30T07:00:44;26.3;;;10.3;;
6561;SDS011;3314;50.890;4.722;2023-04-30T07:02:47;24.6;;;10.9;;
6561;SDS011;3314;50.890;4.722;2023-04-30T07:04:36;25.3;;;11.1;;
6561;SDS011;3314;50.890;4.722;2023-04-30T07:06:36;25.9;;;11.1;;
6561;SDS011;3314;50.890;4.722;2023-04-30T07:08:36;27.4;;;12.4;;
6561;SDS011;3314;50.890;4.722;2023-04-30T07:10:35;25.6;;;11.4;;
6561;SDS011;3314;50.890;4.722;2023-04-30T07:12:35;28.3;;;10.6;;
6561;SDS011;3314;50.890;4.722;2023-04-30T07:14:35;24.3;;;10.8;;
6561;SDS011;3314;50.890;4.722;2023-04-30T07:16:34;29.3;;;11.6;;
6561;SDS011;3314;50.890;4.722;2023-04-30T07:18:34;22.1;;;9.7;;
6561;SDS011;3314;50.890;4.722;2023-04-30T07:20:34;27.4;;;11.7;;
6561;SDS011;3314;50.890;4.722;2023-04-30T07:22:34;28.3;;;12.0;;
6561;SDS011;3314;50.890;4.722;2023-04-30T07:24:33;24.9;;;11.6;;
6561;SDS011;3314;50.890;4.722;2023-04-30T07:26:33;25.3;;;11.6;;
6561;SDS011;3314;50.890;4.722;2023-04-30T07:28:33;22.5;;;10.3;;
6561;SDS011;3314;50.890;4.722;2023-04-30T07:30:33;26.9;;;10.9;;
6561;SDS011;3314;50.890;4.722;2023-04-30T07:32:33;26.8;;;11.4;;
6561;SDS011;3314;50.890;4.722;2023-04-30T07:34:33;30.3;;;12.4;;
6561;SDS011;3314;50.890;4.722;2023-04-30T07:36:32;27.9;;;12.0;;
6561;SDS011;3314;50.890;4.722;2023-04-30T07:38:32;27.4;;;11.6;;
6561;SDS011;3314;50.890;4.722;2023-04-30T07:40:32;26.6;;;10.9;;
6561;SDS011;3314;50.890;4.722;2023-04-30T07:42:31;25.4;;;11.5;;
6561;SDS011;3314;50.890;4.722;2023-04-30T07:44:31;23.8;;;11.2;;
6561;SDS011;3314;50.890;4.722;2023-04-30T07:46:31;28.7;;;11.0;;
6561;SDS011;3314;50.890;4.722;2023-04-30T07:48:30;28.1;;;11.1;;
6561;SDS011;3314;50.890;4.722;2023-04-30T07:50:33;26.2;;;11.5;;
6561;SDS011;3314;50.890;4.722;2023-04-30T07:52:32;21.8;;;10.9;;
6561;SDS011;3314;50.890;4.722;2023-04-30T07:54:35;24.4;;;11.2;;
6561;SDS011;3314;50.890;4.722;2023-04-30T07:56:35;24.9;;;10.8;;
6561;SDS011;3314;50.890;4.722;2023-04-30T07:58:35;26.2;;;11.8;;
6561;SDS011;3314;50.890;4.722;2023-04-30T08:00:40;27.4;;;11.0;;
6561;SDS011;3314;50.890;4.722;2023-04-30T08:02:28;24.2;;;11.4;;
6561;SDS011;3314;50.890;4.722;2023-04-30T08:04:28;24.8;;;10.8;;
6561;SDS011;3314;50.890;4.722;2023-04-30T08:06:28;19.9;;;9.9;;
6561;SDS011;3314;50.890;4.722;2023-04-30T08:08:27;23.1;;;11.3;;
6561;SDS011;3314;50.890;4.722;2023-04-30T08:10:27;26.2;;;12.5;;
6561;SDS011;3314;50.890;4.722;2023-04-30T08:12:27;26.2;;;12.0;;
6561;SDS011;3314;50.890;4.722;2023-04-30T08:14:26;25.7;;;11.2;;
6561;SDS011;3314;50.890;4.722;2023-04-30T08:16:26;26.7;;;11.6;;
6561;SDS011;3314;50.890;4.722;2023-04-30T08:18:26;22.7;;;10.8;;
6561;SDS011;3314;50.890;4.722;2023-04-30T08:20:25;27.9;;;11.7;;
6561;SDS011;3314;50.890;4.722;2023-04-30T08:22:26;27.1;;;10.8;;
6561;SDS011;3314;50.890;4.722;2023-04-30T08:24:26;23.2;;;10.6;;
6561;SDS011;3314;50.890;4.722;2023-04-30T08:26:25;23.8;;;11.1;;
6561;SDS011;3314;50.890;4.722;2023-04-30T08:28:25;23.5;;;10.6;;
6561;SDS011;3314;50.890;4.722;2023-04-30T08:30:25;26.8;;;10.5;;
6561;SDS011;3314;50.890;4.722;2023-04-30T08:32:24;19.9;;;10.3;;
6561;SDS011;3314;50.890;4.722;2023-04-30T08:34:24;23.7;;;10.6;;
6561;SDS011;3314;50.890;4.722;2023-04-30T08:36:24;23.0;;;10.4;;
6561;SDS011;3314;50.890;4.722;2023-04-30T08:38:23;21.1;;;9.9;;
6561;SDS011;3314;50.890;4.722;2023-04-30T08:40:23;22.3;;;9.9;;
6561;SDS011;3314;50.890;4.722;2023-04-30T08:42:24;20.5;;;10.1;;
6561;SDS011;3314;50.890;4.722;2023-04-30T08:44:23;20.3;;;9.9;;
6561;SDS011;3314;50.890;4.722;2023-04-30T08:46:25;25.1;;;11.4;;
6561;SDS011;3314;50.890;4.722;2023-04-30T08:48:24;23.6;;;10.4;;
6561;SDS011;3314;50.890;4.722;2023-04-30T08:50:25;20.9;;;9.2;;
6561;SDS011;3314;50.890;4.722;2023-04-30T08:52:25;20.3;;;8.9;;
6561;SDS011;3314;50.890;4.722;2023-04-30T08:54:27;26.0;;;10.4;;
6561;SDS011;3314;50.890;4.722;2023-04-30T08:56:28;23.1;;;9.8;;
6561;SDS011;3314;50.890;4.722;2023-04-30T08:58:28;24.2;;;10.1;;
6561;SDS011;3314;50.890;4.722;2023-04-30T09:00:28;18.3;;;8.6;;
6561;SDS011;3314;50.890;4.722;2023-04-30T09:02:19;19.1;;;9.0;;
6561;SDS011;3314;50.890;4.722;2023-04-30T09:04:19;25.2;;;9.8;;
6561;SDS011;3314;50.890;4.722;2023-04-30T09:06:19;19.9;;;8.6;;
6561;SDS011;3314;50.890;4.722;2023-04-30T09:08:27;19.2;;;8.6;;
6561;SDS011;3314;50.890;4.722;2023-04-30T09:10:26;19.7;;;7.8;;
6561;SDS011;3314;50.890;4.722;2023-04-30T09:12:26;17.9;;;8.2;;
6561;SDS011;3314;50.890;4.722;2023-04-30T09:14:26;17.7;;;8.6;;
6561;SDS011;3314;50.890;4.722;2023-04-30T09:16:27;18.9;;;7.7;;
6561;SDS011;3314;50.890;4.722;2023-04-30T09:18:29;15.1;;;6.9;;
6561;SDS011;3314;50.890;4.722;2023-04-30T09:20:18;18.0;;;8.3;;
6561;SDS011;3314;50.890;4.722;2023-04-30T09:22:18;19.0;;;8.4;;
6561;SDS011;3314;50.890;4.722;2023-04-30T09:24:18;18.0;;;7.0;;
6561;SDS011;3314;50.890;4.722;2023-04-30T09:26:18;17.4;;;7.1;;
6561;SDS011;3314;50.890;4.722;2023-04-30T09:28:23;19.0;;;7.3;;
6561;SDS011;3314;50.890;4.722;2023-04-30T09:30:29;20.0;;;7.0;;
6561;SDS011;3314;50.890;4.722;2023-04-30T09:32:17;16.1;;;6.4;;
6561;SDS011;3314;50.890;4.722;2023-04-30T09:34:16;17.0;;;6.5;;
6561;SDS011;3314;50.890;4.722;2023-04-30T09:36:16;17.2;;;6.4;;
6561;SDS011;3314;50.890;4.722;2023-04-30T09:38:31;16.5;;;6.8;;
6561;SDS011;3314;50.890;4.722;2023-04-30T09:40:19;15.8;;;6.5;;
6561;SDS011;3314;50.890;4.722;2023-04-30T09:42:19;16.0;;;6.3;;
6561;SDS011;3314;50.890;4.722;2023-04-30T09:44:25;18.8;;;6.5;;
6561;SDS011;3314;50.890;4.722;2023-04-30T09:46:17;14.6;;;5.8;;
6561;SDS011;3314;50.890;4.722;2023-04-30T09:48:19;19.3;;;7.2;;
6561;SDS011;3314;50.890;4.722;2023-04-30T09:50:19;16.9;;;5.4;;
6561;SDS011;3314;50.890;4.722;2023-04-30T09:52:20;13.0;;;5.3;;
6561;SDS011;3314;50.890;4.722;2023-04-30T09:54:21;15.5;;;5.4;;
6561;SDS011;3314;50.890;4.722;2023-04-30T09:56:23;13.6;;;4.6;;
6561;SDS011;3314;50.890;4.722;2023-04-30T09:58:13;16.6;;;6.0;;
6561;SDS011;3314;50.890;4.722;2023-04-30T10:00:14;15.0;;;5.7;;
6561;SDS011;3314;50.890;4.722;2023-04-30T10:02:14;13.9;;;5.5;;
6561;SDS011;3314;50.890;4.722;2023-04-30T10:04:14;14.6;;;5.4;;
6561;SDS011;3314;50.890;4.722;2023-04-30T10:06:15;15.4;;;5.5;;
6561;SDS011;3314;50.890;4.722;2023-04-30T10:08:17;14.4;;;5.5;;
6561;SDS011;3314;50.890;4.722;2023-04-30T10:10:17;18.9;;;5.3;;
6561;SDS011;3314;50.890;4.722;2023-04-30T10:12:19;14.8;;;5.4;;
6561;SDS011;3314;50.890;4.722;2023-04-30T10:14:20;12.7;;;4.3;;
6561;SDS011;3314;50.890;4.722;2023-04-30T10:16:24;13.3;;;5.1;;
6561;SDS011;3314;50.890;4.722;2023-04-30T10:18:15;12.5;;;4.4;;
6561;SDS011;3314;50.890;4.722;2023-04-30T10:20:16;11.5;;;4.5;;
6561;SDS011;3314;50.890;4.722;2023-04-30T10:22:16;12.9;;;4.0;;
6561;SDS011;3314;50.890;4.722;2023-04-30T10:24:18;12.2;;;4.0;;
6561;SDS011;3314;50.890;4.722;2023-04-30T10:26:19;16.1;;;4.8;;
6561;SDS011;3314;50.890;4.722;2023-04-30T10:28:18;14.3;;;4.1;;
6561;SDS011;3314;50.890;4.722;2023-04-30T10:30:18;15.1;;;5.5;;
6561;SDS011;3314;50.890;4.722;2023-04-30T10:32:10;18.3;;;6.1;;
6561;SDS011;3314;50.890;4.722;2023-04-30T10:34:12;12.4;;;4.2;;
6561;SDS011;3314;50.890;4.722;2023-04-30T10:36:14;10.8;;;4.0;;
6561;SDS011;3314;50.890;4.722;2023-04-30T10:38:19;11.2;;;3.9;;
6561;SDS011;3314;50.890;4.722;2023-04-30T10:40:09;13.2;;;4.6;;
6561;SDS011;3314;50.890;4.722;2023-04-30T10:42:09;14.9;;;4.8;;
6561;SDS011;3314;50.890;4.722;2023-04-30T10:44:09;17.1;;;5.3;;
6561;SDS011;3314;50.890;4.722;2023-04-30T10:46:09;13.6;;;4.5;;
6561;SDS011;3314;50.890;4.722;2023-04-30T10:48:08;15.2;;;4.6;;
6561;SDS011;3314;50.890;4.722;2023-04-30T10:50:08;14.1;;;5.2;;
6561;SDS011;3314;50.890;4.722;2023-04-30T10:52:09;14.3;;;5.0;;
6561;SDS011;3314;50.890;4.722;2023-04-30T10:54:09;14.8;;;4.4;;
6561;SDS011;3314;50.890;4.722;2023-04-30T10:56:09;12.9;;;3.8;;
6561;SDS011;3314;50.890;4.722;2023-04-30T10:58:21;11.0;;;3.5;;
6561;SDS011;3314;50.890;4.722;2023-04-30T11:00:25;12.0;;;3.7;;
6561;SDS011;3314;50.890;4.722;2023-04-30T11:02:14;10.3;;;3.1;;
6561;SDS011;3314;50.890;4.722;2023-04-30T11:04:14;9.5;;;3.4;;
6561;SDS011;3314;50.890;4.722;2023-04-30T11:06:14;10.0;;;3.0;;
6561;SDS011;3314;50.890;4.722;2023-04-30T11:08:14;10.2;;;3.2;;
6561;SDS011;3314;50.890;4.722;2023-04-30T11:10:14;12.5;;;4.3;;
6561;SDS011;3314;50.890;4.722;2023-04-30T11:12:15;13.1;;;4.4;;
6561;SDS011;3314;50.890;4.722;2023-04-30T11:14:05;13.7;;;3.9;;
6561;SDS011;3314;50.890;4.722;2023-04-30T11:16:05;10.2;;;3.3;;
6561;SDS011;3314;50.890;4.722;2023-04-30T11:18:06;10.0;;;3.3;;
6561;SDS011;3314;50.890;4.722;2023-04-30T11:20:06;10.5;;;3.5;;
6561;SDS011;3314;50.890;4.722;2023-04-30T11:22:18;10.6;;;3.4;;
6561;SDS011;3314;50.890;4.722;2023-04-30T11:24:07;11.1;;;3.4;;
6561;SDS011;3314;50.890;4.722;2023-04-30T11:26:07;12.7;;;3.8;;
6561;SDS011;3314;50.890;4.722;2023-04-30T11:28:07;14.4;;;3.4;;
6561;SDS011;3314;50.890;4.722;2023-04-30T11:30:09;9.8;;;3.2;;
6561;SDS011;3314;50.890;4.722;2023-04-30T11:32:10;11.5;;;3.2;;
6561;SDS011;3314;50.890;4.722;2023-04-30T11:34:10;13.2;;;3.5;;
6561;SDS011;3314;50.890;4.722;2023-04-30T11:36:10;9.7;;;3.7;;
6561;SDS011;3314;50.890;4.722;2023-04-30T11:38:12;10.2;;;2.9;;
6561;SDS011;3314;50.890;4.722;2023-04-30T11:40:12;7.9;;;2.1;;
6561;SDS011;3314;50.890;4.722;2023-04-30T11:42:15;9.0;;;2.3;;
6561;SDS011;3314;50.890;4.722;2023-04-30T11:44:03;10.0;;;2.7;;
6561;SDS011;3314;50.890;4.722;2023-04-30T11:46:05;10.4;;;2.4;;
6561;SDS011;3314;50.890;4.722;2023-04-30T11:48:05;10.3;;;2.6;;
6561;SDS011;3314;50.890;4.722;2023-04-30T11:50:05;10.2;;;2.4;;
6561;SDS011;3314;50.890;4.722;2023-04-30T11:52:05;9.1;;;2.2;;
6561;SDS011;3314;50.890;4.722;2023-04-30T11:54:06;10.5;;;2.5;;
6561;SDS011;3314;50.890;4.722;2023-04-30T11:56:06;11.1;;;2.9;;
6561;SDS011;3314;50.890;4.722;2023-04-30T11:58:07;8.8;;;2.1;;
6561;SDS011;3314;50.890;4.722;2023-04-30T12:00:10;7.4;;;1.4;;
6561;SDS011;3314;50.890;4.722;2023-04-30T12:02:13;10.2;;;2.0;;
6561;SDS011;3314;50.890;4.722;2023-04-30T12:04:03;12.2;;;2.4;;
6561;SDS011;3314;50.890;4.722;2023-04-30T12:06:03;8.6;;;2.4;;
6561;SDS011;3314;50.890;4.722;2023-04-30T12:08:06;9.4;;;1.9;;
6561;SDS011;3314;50.890;4.722;2023-04-30T12:10:07;9.5;;;2.0;;
6561;SDS011;3314;50.890;4.722;2023-04-30T12:12:08;9.1;;;1.6;;
6561;SDS011;3314;50.890;4.722;2023-04-30T12:14:10;9.3;;;2.4;;
6561;SDS011;3314;50.890;4.722;2023-04-30T12:16:10;8.1;;;1.9;;
6561;SDS011;3314;50.890;4.722;2023-04-30T12:18:10;8.4;;;2.3;;
6561;SDS011;3314;50.890;4.722;2023-04-30T12:20:00;8.6;;;2.2;;
6561;SDS011;3314;50.890;4.722;2023-04-30T12:22:00;8.1;;;2.0;;
6561;SDS011;3314;50.890;4.722;2023-04-30T12:24:00;11.1;;;2.0;;
6561;SDS011;3314;50.890;4.722;2023-04-30T12:26:00;10.4;;;1.9;;
6561;SDS011;3314;50.890;4.722;2023-04-30T12:28:00;7.6;;;1.5;;
6561;SDS011;3314;50.890;4.722;2023-04-30T12:30:01;10.3;;;2.5;;
6561;SDS011;3314;50.890;4.722;2023-04-30T12:32:00;9.4;;;2.2;;
6561;SDS011;3314;50.890;4.722;2023-04-30T12:34:04;8.3;;;1.8;;
6561;SDS011;3314;50.890;4.722;2023-04-30T12:36:04;9.0;;;2.1;;